createdAt,value
2022-08-22T00:01:04.696Z,26.23
2022-08-22T00:02:52.977Z,28.85
2022-08-22T00:02:56.462Z,27.19
2022-08-22T00:03:01.015Z,27.35
2022-08-22T00:03:01.814Z,29.60
2022-08-22T00:05:30.112Z,26.16
2022-08-22T00:07:46.117Z,26.08
2022-08-22T00:09:55.644Z,26.10
2022-08-22T00:12:08.699Z,26.05
2022-08-22T00:14:19.801Z,26.01
2022-08-22T00:16:29.279Z,25.98
2022-08-22T00:18:37.596Z,25.96
2022-08-22T00:20:44.763Z,25.93
2022-08-22T00:22:54.527Z,25.91
2022-08-22T00:25:24.580Z,25.85
2022-08-22T00:27:36.742Z,25.79
2022-08-22T00:29:50.653Z,25.77
2022-08-22T00:32:03.857Z,25.70
2022-08-22T00:34:11.974Z,25.62
2022-08-22T00:36:24.265Z,25.57
2022-08-22T00:38:30.377Z,25.60
2022-08-22T00:40:52.168Z,25.58
2022-08-22T00:43:13.078Z,25.60
2022-08-22T00:45:48.043Z,25.55
2022-08-22T00:48:02.492Z,25.55
2022-08-22T00:50:27.434Z,25.56
2022-08-22T00:53:03.345Z,25.53
2022-08-22T00:55:26.315Z,25.48
2022-08-22T00:57:54.525Z,25.48
2022-08-22T01:00:06.670Z,25.48
2022-08-22T01:02:20.423Z,25.44
2022-08-22T01:04:34.409Z,25.40
2022-08-22T01:06:47.774Z,25.34
2022-08-22T01:09:02.449Z,25.32
2022-08-22T01:11:26.808Z,25.29
2022-08-22T01:13:46.797Z,25.26
2022-08-22T01:15:53.273Z,25.29
2022-08-22T01:18:21.747Z,25.26
2022-08-22T01:21:10.587Z,25.18
2022-08-22T01:23:54.871Z,25.16
2022-08-22T01:26:26.474Z,25.11
2022-08-22T01:29:28.490Z,25.07
2022-08-22T01:32:19.844Z,25.04
2022-08-22T01:35:06.281Z,25.02
2022-08-22T01:38:06.015Z,25.05
2022-08-22T01:40:30.073Z,24.98
2022-08-22T01:42:53.739Z,24.92
2022-08-22T01:45:18.371Z,24.91
2022-08-22T01:47:26.526Z,24.85
2022-08-22T01:49:37.056Z,24.80
2022-08-22T01:51:46.684Z,24.83
2022-08-22T01:53:58.261Z,24.86
2022-08-22T01:56:07.575Z,24.86
2022-08-22T01:58:16.588Z,24.84
2022-08-22T02:00:20.549Z,24.79
2022-08-22T02:02:50.944Z,24.80
2022-08-22T02:05:02.700Z,24.78
2022-08-22T02:07:12.911Z,24.68
2022-08-22T02:09:31.441Z,24.63
2022-08-22T02:11:43.234Z,24.63
2022-08-22T02:13:56.894Z,24.66
2022-08-22T02:16:07.349Z,24.59
2022-08-22T02:18:23.400Z,24.63
2022-08-22T02:20:31.913Z,24.71
2022-08-22T02:22:44.351Z,24.63
2022-08-22T02:24:52.060Z,24.62
2022-08-22T02:27:05.230Z,24.63
2022-08-22T02:29:12.175Z,24.62
2022-08-22T02:31:18.548Z,24.54
2022-08-22T02:33:29.253Z,24.49
2022-08-22T02:35:39.803Z,24.41
2022-08-22T02:37:54.253Z,24.48
2022-08-22T02:40:05.963Z,24.41
2022-08-22T02:42:17.135Z,24.44
2022-08-22T02:44:26.265Z,24.46
2022-08-22T02:46:32.103Z,24.51
2022-08-22T02:48:39.240Z,24.47
2022-08-22T02:50:49.635Z,24.50
2022-08-22T02:53:00.881Z,24.49
2022-08-22T02:55:08.902Z,24.48
2022-08-22T02:57:14.735Z,24.48
2022-08-22T02:59:29.744Z,24.41
2022-08-22T03:01:38.961Z,24.33
2022-08-22T03:03:45.882Z,24.23
2022-08-22T03:05:59.118Z,24.14
2022-08-22T03:08:13.020Z,24.11
2022-08-22T03:10:20.311Z,24.13
2022-08-22T03:12:26.500Z,24.06
2022-08-22T03:14:35.770Z,24.08
2022-08-22T03:16:45.703Z,24.06
2022-08-22T03:18:56.253Z,24.00
2022-08-22T03:21:11.479Z,23.99
2022-08-22T03:23:23.880Z,23.90
2022-08-22T03:25:31.595Z,23.85
2022-08-22T03:27:38.795Z,23.80
2022-08-22T03:29:47.273Z,23.86
2022-08-22T03:32:09.263Z,23.93
2022-08-22T03:34:21.657Z,23.94
2022-08-22T03:36:26.844Z,23.85
2022-08-22T03:38:43.852Z,23.83
2022-08-22T03:41:06.678Z,23.86
2022-08-22T03:43:39.439Z,23.88
2022-08-22T03:46:20.614Z,23.87
2022-08-22T03:48:43.331Z,23.84
2022-08-22T03:51:13.313Z,23.85
2022-08-22T03:53:40.432Z,23.78
2022-08-22T03:56:09.126Z,23.78
2022-08-22T03:58:46.096Z,23.74
2022-08-22T04:01:12.592Z,23.79
2022-08-22T04:03:56.982Z,23.78
2022-08-22T04:06:34.013Z,23.76
2022-08-22T04:09:03.116Z,23.69
2022-08-22T04:11:27.370Z,23.64
2022-08-22T04:13:54.865Z,23.62
2022-08-22T04:16:12.456Z,23.56
2022-08-22T04:18:33.314Z,23.52
2022-08-22T04:21:02.749Z,23.55
2022-08-22T04:23:44.388Z,23.60
2022-08-22T04:25:53.359Z,23.58
2022-08-22T04:28:00.562Z,23.57
2022-08-22T04:30:07.992Z,23.60
2022-08-22T04:32:17.834Z,23.51
2022-08-22T04:34:26.277Z,23.50
2022-08-22T04:36:33.886Z,23.45
2022-08-22T04:38:41.095Z,23.46
2022-08-22T04:40:47.641Z,23.44
2022-08-22T04:42:56.861Z,23.41
2022-08-22T04:45:08.707Z,23.33
2022-08-22T04:47:20.911Z,23.35
2022-08-22T04:49:29.226Z,23.35
2022-08-22T04:51:35.618Z,23.37
2022-08-22T04:54:03.566Z,23.34
2022-08-22T04:56:10.627Z,23.33
2022-08-22T04:58:26.519Z,23.38
2022-08-22T05:00:39.095Z,23.40
2022-08-22T05:02:48.334Z,23.31
2022-08-22T05:04:58.849Z,23.31
2022-08-22T05:07:06.144Z,23.31
2022-08-22T05:09:16.035Z,23.36
2022-08-22T05:11:22.414Z,23.37
2022-08-22T05:13:31.039Z,23.34
2022-08-22T05:15:35.687Z,23.35
2022-08-22T05:17:39.558Z,23.36
2022-08-22T05:19:49.683Z,23.42
2022-08-22T05:21:51.669Z,23.40
2022-08-22T05:23:58.871Z,23.44
2022-08-22T05:26:05.018Z,23.43
2022-08-22T05:28:12.008Z,23.41
2022-08-22T05:30:20.505Z,23.40
2022-08-22T05:32:25.791Z,23.42
2022-08-22T05:34:33.445Z,23.48
2022-08-22T05:36:39.318Z,23.48
2022-08-22T05:38:45.869Z,23.41
2022-08-22T05:40:54.704Z,23.41
2022-08-22T05:42:58.075Z,23.43
2022-08-22T05:45:01.938Z,23.41
2022-08-22T05:47:14.162Z,23.42
2022-08-22T05:49:20.812Z,23.48
2022-08-22T05:51:26.614Z,23.51
2022-08-22T05:53:40.242Z,23.48
2022-08-22T05:55:53.208Z,23.49
2022-08-22T05:58:18.186Z,23.57
2022-08-22T06:00:23.065Z,23.57
2022-08-22T06:02:38.950Z,23.61
2022-08-22T06:04:47.803Z,23.68
2022-08-22T06:06:55.445Z,23.67
2022-08-22T06:09:02.284Z,23.71
2022-08-22T06:11:08.766Z,23.78
2022-08-22T06:13:14.367Z,23.80
2022-08-22T06:15:20.974Z,23.91
2022-08-22T06:17:31.104Z,23.94
2022-08-22T06:19:39.321Z,24.05
2022-08-22T06:21:42.126Z,24.17
2022-08-22T06:23:50.046Z,24.20
2022-08-22T06:25:55.326Z,24.24
2022-08-22T06:28:00.921Z,24.31
2022-08-22T06:30:04.331Z,24.34
2022-08-22T06:32:11.981Z,24.40
2022-08-22T06:34:17.941Z,24.47
2022-08-22T06:36:23.306Z,24.53
2022-08-22T06:38:29.831Z,24.58
2022-08-22T06:40:31.597Z,24.59
2022-08-22T06:42:38.239Z,24.66
2022-08-22T06:44:44.829Z,24.74
2022-08-22T06:46:49.131Z,24.96
2022-08-22T06:48:51.314Z,25.17
2022-08-22T06:50:58.262Z,25.32
2022-08-22T06:53:06.555Z,25.37
2022-08-22T06:55:09.754Z,25.41
2022-08-22T06:57:26.723Z,25.48
2022-08-22T06:59:31.967Z,25.40
2022-08-22T07:01:39.612Z,25.41
2022-08-22T07:03:44.944Z,25.49
2022-08-22T07:05:46.985Z,25.55
2022-08-22T07:07:50.888Z,25.66
2022-08-22T07:09:53.874Z,25.70
2022-08-22T07:11:59.523Z,25.69
2022-08-22T07:14:04.366Z,25.76
2022-08-22T07:16:08.796Z,25.77
2022-08-22T07:18:20.488Z,25.92
2022-08-22T07:20:26.033Z,26.03
2022-08-22T07:22:30.396Z,26.11
2022-08-22T07:24:33.488Z,26.06
2022-08-22T07:26:47.202Z,26.11
2022-08-22T07:28:58.723Z,26.23
2022-08-22T07:31:09.955Z,26.29
2022-08-22T07:33:27.292Z,26.53
2022-08-22T07:35:35.340Z,26.57
2022-08-22T07:37:48.952Z,26.62
2022-08-22T07:40:06.219Z,26.70
2022-08-22T07:42:14.474Z,26.75
2022-08-22T07:44:19.660Z,26.92
2022-08-22T07:46:28.453Z,27.02
2022-08-22T07:48:33.305Z,27.05
2022-08-22T07:50:39.133Z,26.97
2022-08-22T07:52:44.221Z,26.92
2022-08-22T07:54:52.730Z,26.78
2022-08-22T07:57:00.953Z,26.67
2022-08-22T07:59:12.684Z,26.58
2022-08-22T08:01:17.933Z,26.60
2022-08-22T08:03:23.212Z,26.64
2022-08-22T08:05:28.918Z,26.69
2022-08-22T08:07:31.222Z,26.74
2022-08-22T08:09:38.590Z,26.79
2022-08-22T08:11:43.247Z,26.78
2022-08-22T08:13:49.521Z,26.84
2022-08-22T08:15:51.707Z,26.87
2022-08-22T08:17:58.767Z,26.84
2022-08-22T08:20:05.716Z,26.91
2022-08-22T08:22:07.936Z,26.79
2022-08-22T08:24:15.778Z,26.79
2022-08-22T08:26:23.540Z,26.82
2022-08-22T08:28:25.648Z,26.85
2022-08-22T08:30:36.621Z,26.88
2022-08-22T08:32:39.517Z,26.97
2022-08-22T08:34:43.755Z,27.08
2022-08-22T08:36:52.430Z,27.18
2022-08-22T08:39:01.433Z,27.30
2022-08-22T08:41:30.823Z,27.41
2022-08-22T08:43:40.668Z,27.53
2022-08-22T08:46:09.630Z,27.61
2022-08-22T08:48:43.926Z,27.67
2022-08-22T08:51:03.256Z,27.71
2022-08-22T08:53:33.116Z,27.82
2022-08-22T08:55:45.228Z,27.84
2022-08-22T08:58:06.599Z,27.69
2022-08-22T09:00:14.606Z,27.75
2022-08-22T09:02:33.916Z,27.75
2022-08-22T09:05:06.916Z,27.72
2022-08-22T09:07:29.469Z,27.78
2022-08-22T09:09:46.102Z,27.80
2022-08-22T09:12:33.000Z,27.89
2022-08-22T09:15:10.073Z,27.99
2022-08-22T09:17:38.858Z,27.98
2022-08-22T09:23:10.136Z,27.87
2022-08-22T09:25:23.405Z,27.77
2022-08-22T09:27:33.421Z,27.74
2022-08-22T09:29:54.911Z,27.88
2022-08-22T09:32:08.066Z,27.93
2022-08-22T09:34:23.840Z,27.89
2022-08-22T09:36:33.809Z,27.87
2022-08-22T09:38:47.945Z,28.00
2022-08-22T09:41:00.171Z,28.06
2022-08-22T09:43:08.356Z,28.09
2022-08-22T09:45:36.306Z,28.17
2022-08-22T09:47:48.021Z,28.28
2022-08-22T09:50:04.435Z,28.31
2022-08-22T09:52:14.394Z,28.35
2022-08-22T09:54:34.378Z,28.44
2022-08-22T09:56:39.888Z,28.50
2022-08-22T09:58:49.525Z,28.46
2022-08-22T10:00:55.759Z,28.48
2022-08-22T10:03:04.801Z,28.60
2022-08-22T10:05:40.614Z,28.68
2022-08-22T10:08:01.283Z,28.75
2022-08-22T10:10:15.466Z,28.80
2022-08-22T10:12:25.009Z,28.75
2022-08-22T10:14:42.851Z,28.78
2022-08-22T10:17:02.301Z,28.81
2022-08-22T10:19:13.504Z,28.87
2022-08-22T10:21:26.795Z,28.95
2022-08-22T10:23:36.373Z,28.97
2022-08-22T10:25:42.367Z,28.94
2022-08-22T10:27:56.730Z,28.94
2022-08-22T10:30:09.576Z,28.99
2022-08-22T10:32:30.047Z,29.01
2022-08-22T10:34:38.550Z,29.09
2022-08-22T10:36:57.340Z,29.08
2022-08-22T10:39:02.070Z,29.13
2022-08-22T10:41:35.197Z,29.15
2022-08-22T10:43:43.983Z,29.18
2022-08-22T10:45:48.192Z,29.27
2022-08-22T10:48:29.485Z,29.36
2022-08-22T10:50:34.739Z,29.39
2022-08-22T10:52:47.866Z,29.42
2022-08-22T10:54:53.062Z,29.52
2022-08-22T10:57:13.043Z,29.60
2022-08-22T10:59:25.991Z,29.63
2022-08-22T11:01:38.540Z,29.67
2022-08-22T11:03:51.850Z,29.74
2022-08-22T11:05:58.347Z,29.92
2022-08-22T11:08:11.689Z,30.09
2022-08-22T11:10:27.344Z,30.26
2022-08-22T11:12:35.725Z,30.56
2022-08-22T11:15:03.026Z,30.82
2022-08-22T11:17:27.933Z,31.17
2022-08-22T11:19:50.192Z,31.21
2022-08-22T11:22:08.542Z,31.17
2022-08-22T11:24:53.923Z,31.35
2022-08-22T11:27:02.994Z,31.78
2022-08-22T11:29:38.485Z,32.18
2022-08-22T11:31:51.587Z,32.22
2022-08-22T11:33:59.976Z,32.28
2022-08-22T11:36:12.549Z,32.35
2022-08-22T11:38:29.264Z,32.62
2022-08-22T11:40:42.639Z,32.73
2022-08-22T11:42:48.192Z,32.98
2022-08-22T11:44:54.456Z,33.58
2022-08-22T11:46:59.005Z,33.93
2022-08-22T11:49:19.650Z,33.77
2022-08-22T11:51:50.509Z,33.61
2022-08-22T11:54:06.306Z,33.64
2022-08-22T11:56:20.466Z,33.72
2022-08-22T11:58:33.495Z,33.90
2022-08-22T12:00:47.016Z,33.98
2022-08-22T12:03:16.095Z,33.76
2022-08-22T12:05:26.296Z,33.49
2022-08-22T12:07:30.992Z,33.42
2022-08-22T12:09:47.607Z,33.35
2022-08-22T12:12:09.280Z,33.04
2022-08-22T12:14:21.256Z,32.69
2022-08-22T12:16:37.207Z,32.58
2022-08-22T12:18:53.594Z,32.78
2022-08-22T12:21:11.783Z,32.95
2022-08-22T12:23:48.729Z,33.19
2022-08-22T12:26:10.905Z,33.57
2022-08-22T12:28:27.872Z,34.10
2022-08-22T12:30:39.978Z,34.77
2022-08-22T12:33:33.617Z,35.57
2022-08-22T12:35:52.567Z,35.78
2022-08-22T12:38:02.749Z,36.58
2022-08-22T12:40:26.442Z,36.64
2022-08-22T12:42:56.775Z,37.02
2022-08-22T12:45:34.886Z,37.56
2022-08-22T12:47:56.389Z,38.01
2022-08-22T12:50:10.949Z,38.08
2022-08-22T12:52:33.653Z,37.79
2022-08-22T12:54:56.862Z,37.74
2022-08-22T12:57:23.685Z,37.19
2022-08-22T12:59:30.937Z,36.72
2022-08-22T13:01:35.391Z,36.39
2022-08-22T13:03:49.392Z,36.20
2022-08-22T13:05:59.130Z,35.78
2022-08-22T13:08:05.387Z,35.51
2022-08-22T13:10:40.647Z,35.32
2022-08-22T13:12:47.063Z,35.28
2022-08-22T13:14:53.273Z,35.31
2022-08-22T13:16:58.625Z,35.33
2022-08-22T13:19:07.747Z,35.31
2022-08-22T13:21:15.255Z,35.13
2022-08-22T13:23:22.381Z,34.86
2022-08-22T13:25:27.020Z,34.86
2022-08-22T13:27:32.553Z,35.06
2022-08-22T13:29:42.675Z,35.27
2022-08-22T13:31:55.292Z,35.02
2022-08-22T13:34:00.148Z,35.24
2022-08-22T13:36:10.936Z,36.11
2022-08-22T13:38:17.530Z,36.82
2022-08-22T13:40:31.420Z,37.45
2022-08-22T13:42:42.635Z,36.79
2022-08-22T13:44:50.208Z,36.18
2022-08-22T13:47:13.644Z,35.95
2022-08-22T13:49:19.020Z,35.84
2022-08-22T13:51:36.166Z,36.83
2022-08-22T13:53:49.988Z,37.46
2022-08-22T13:56:15.864Z,37.94
2022-08-22T13:58:28.835Z,38.54
2022-08-22T14:01:12.485Z,39.13
2022-08-22T14:03:17.967Z,39.49
2022-08-22T14:05:25.198Z,39.89
2022-08-22T14:07:33.571Z,40.14
2022-08-22T14:09:48.205Z,39.36
2022-08-22T14:12:00.895Z,38.46
2022-08-22T14:14:05.027Z,37.86
2022-08-22T14:16:10.604Z,37.35
2022-08-22T14:18:15.311Z,36.96
2022-08-22T14:20:32.347Z,36.83
2022-08-22T14:22:38.569Z,36.57
2022-08-22T14:24:45.594Z,36.31
2022-08-22T14:26:57.890Z,35.93
2022-08-22T14:29:02.740Z,35.70
2022-08-22T14:31:08.235Z,35.48
2022-08-22T14:33:17.962Z,35.04
2022-08-22T14:35:38.027Z,34.94
2022-08-22T14:37:44.696Z,34.75
2022-08-22T14:39:50.923Z,34.47
2022-08-22T14:42:04.067Z,34.18
2022-08-22T14:44:11.433Z,33.97
2022-08-22T14:46:18.562Z,33.61
2022-08-22T14:48:30.890Z,33.44
2022-08-22T14:50:44.544Z,33.21
2022-08-22T14:53:04.594Z,33.19
2022-08-22T14:55:25.371Z,33.21
2022-08-22T14:57:27.234Z,33.07
2022-08-22T14:59:38.501Z,33.06
2022-08-22T15:01:54.413Z,33.03
2022-08-22T15:04:07.691Z,32.90
2022-08-22T15:06:12.338Z,32.86
2022-08-22T15:08:24.258Z,32.68
2022-08-22T15:10:29.584Z,32.71
2022-08-22T15:12:38.568Z,32.53
2022-08-22T15:14:52.074Z,32.58
2022-08-22T15:16:58.018Z,32.45
2022-08-22T15:19:22.587Z,32.46
2022-08-22T15:21:26.232Z,32.34
2022-08-22T15:23:29.797Z,32.38
2022-08-22T15:25:35.043Z,32.39
2022-08-22T15:27:45.923Z,32.46
2022-08-22T15:29:52.798Z,32.47
2022-08-22T15:31:58.719Z,32.44
2022-08-22T15:34:10.344Z,32.38
2022-08-22T15:36:15.775Z,32.41
2022-08-22T15:38:27.940Z,32.41
2022-08-22T15:40:36.703Z,32.39
2022-08-22T15:42:45.488Z,32.34
2022-08-22T15:44:47.822Z,32.34
2022-08-22T15:46:59.721Z,32.39
2022-08-22T15:49:06.430Z,32.38
2022-08-22T15:51:13.641Z,32.39
2022-08-22T15:53:20.921Z,32.36
2022-08-22T15:55:26.409Z,32.34
2022-08-22T15:57:31.626Z,32.33
2022-08-22T15:59:48.155Z,32.33
2022-08-22T16:01:59.381Z,32.29
2022-08-22T16:04:07.545Z,32.27
2022-08-22T16:06:11.005Z,32.18
2022-08-22T16:08:16.167Z,32.20
2022-08-22T16:10:32.864Z,32.18
2022-08-22T16:12:40.935Z,32.05
2022-08-22T16:14:51.243Z,32.02
2022-08-22T16:16:57.559Z,32.03
2022-08-22T16:19:24.246Z,32.00
2022-08-22T16:21:59.242Z,31.98
2022-08-22T16:24:30.172Z,31.97
2022-08-22T16:26:39.248Z,31.93
2022-08-22T16:28:58.119Z,31.93
2022-08-22T16:31:18.913Z,31.93
2022-08-22T16:33:33.195Z,31.90
2022-08-22T16:36:23.205Z,31.91
2022-08-22T16:38:27.651Z,31.85
2022-08-22T16:40:30.040Z,31.83
2022-08-22T16:42:36.540Z,31.78
2022-08-22T16:44:46.001Z,31.78
2022-08-22T16:46:50.351Z,31.74
2022-08-22T16:49:01.120Z,31.74
2022-08-22T16:51:07.554Z,31.70
2022-08-22T16:53:31.582Z,31.66
2022-08-22T16:55:44.956Z,31.61
2022-08-22T16:58:06.136Z,31.57
2022-08-22T17:00:26.304Z,31.53
2022-08-22T17:02:47.365Z,31.55
2022-08-22T17:05:02.783Z,31.50
2022-08-22T17:07:20.423Z,31.48
2022-08-22T17:09:47.325Z,31.45
2022-08-22T17:11:58.111Z,31.44
2022-08-22T17:14:24.197Z,31.37
2022-08-22T17:16:39.889Z,31.38
2022-08-22T17:18:51.876Z,31.32
2022-08-22T17:21:02.514Z,31.31
2022-08-22T17:23:13.072Z,31.30
2022-08-22T17:25:25.134Z,31.26
2022-08-22T17:27:31.580Z,31.31
2022-08-22T17:29:55.492Z,31.34
2022-08-22T17:32:10.007Z,31.31
2022-08-22T17:34:25.043Z,31.29
2022-08-22T17:36:38.110Z,31.28
2022-08-22T17:38:53.399Z,31.23
2022-08-22T17:41:05.632Z,31.23
2022-08-22T17:43:49.529Z,31.14
2022-08-22T17:46:12.806Z,31.13
2022-08-22T17:48:19.236Z,31.08
2022-08-22T17:50:32.184Z,31.07
2022-08-22T17:52:41.010Z,31.06
2022-08-22T17:54:51.299Z,31.05
2022-08-22T17:57:02.668Z,31.03
2022-08-22T17:59:20.673Z,31.03
2022-08-22T18:01:39.084Z,31.01
2022-08-22T18:03:50.044Z,31.02
2022-08-22T18:05:54.176Z,31.00
2022-08-22T18:08:06.001Z,31.02
2022-08-22T18:10:18.397Z,31.01
2022-08-22T18:12:27.141Z,31.02
2022-08-22T18:14:41.314Z,31.01
2022-08-22T18:16:47.068Z,31.00
2022-08-22T18:18:57.055Z,30.98
2022-08-22T18:21:05.800Z,30.97
2022-08-22T18:23:21.582Z,30.99
2022-08-22T18:25:41.816Z,30.97
2022-08-22T18:27:49.975Z,30.96
2022-08-22T18:29:59.499Z,30.95
2022-08-22T18:32:13.613Z,30.91
2022-08-22T18:34:31.144Z,30.88
2022-08-22T18:36:36.910Z,30.85
2022-08-22T18:38:50.470Z,30.85
2022-08-22T18:40:57.820Z,30.83
2022-08-22T18:43:12.655Z,30.78
2022-08-22T18:45:17.231Z,30.77
2022-08-22T18:47:22.875Z,30.77
2022-08-22T18:49:40.653Z,30.71
2022-08-22T18:51:42.823Z,30.66
2022-08-22T18:53:47.873Z,30.64
2022-08-22T18:55:56.387Z,30.61
2022-08-22T18:58:17.568Z,30.58
2022-08-22T19:00:23.403Z,30.54
2022-08-22T19:03:04.131Z,30.48
2022-08-22T19:05:23.910Z,30.46
2022-08-22T19:07:53.768Z,30.39
2022-08-22T19:10:18.683Z,30.37
2022-08-22T19:12:37.758Z,30.35
2022-08-22T19:14:59.304Z,30.30
2022-08-22T19:17:28.971Z,30.24
2022-08-22T19:19:44.210Z,30.24
2022-08-22T19:22:19.092Z,30.22
2022-08-22T19:24:42.636Z,30.21
2022-08-22T19:26:45.982Z,30.14
2022-08-22T19:28:47.825Z,30.12
2022-08-22T19:30:51.020Z,30.02
2022-08-22T19:33:02.978Z,30.01
2022-08-22T19:35:19.096Z,29.99
2022-08-22T19:37:31.947Z,29.93
2022-08-22T19:39:54.501Z,29.92
2022-08-22T19:41:57.027Z,29.92
2022-08-22T19:43:58.882Z,29.91
2022-08-22T19:46:04.788Z,29.90
2022-08-22T19:48:14.170Z,29.91
2022-08-22T19:50:28.108Z,29.91
2022-08-22T19:52:58.088Z,29.89
2022-08-22T19:55:09.306Z,29.84
2022-08-22T19:57:17.105Z,29.80
2022-08-22T19:59:26.312Z,29.75
2022-08-22T20:01:42.988Z,29.69
2022-08-22T20:03:54.533Z,29.66
2022-08-22T20:06:05.971Z,29.58
2022-08-22T20:08:47.122Z,29.54
2022-08-22T20:11:00.122Z,29.51
2022-08-22T20:13:07.658Z,29.45
2022-08-22T20:15:18.697Z,29.43
2022-08-22T20:17:41.572Z,29.38
2022-08-22T20:22:17.302Z,29.19
2022-08-22T20:24:24.654Z,29.20
2022-08-22T20:26:26.343Z,29.21
2022-08-22T20:28:44.252Z,29.23
2022-08-22T20:30:48.634Z,29.18
2022-08-22T20:32:53.244Z,29.15
2022-08-22T20:34:58.924Z,29.13
2022-08-22T20:37:27.239Z,29.13
2022-08-22T20:39:35.645Z,29.09
2022-08-22T20:41:39.834Z,29.07
2022-08-22T20:43:46.274Z,29.05
2022-08-22T20:45:57.220Z,29.04
2022-08-22T20:47:59.234Z,28.99
2022-08-22T20:50:09.706Z,28.89
2022-08-22T20:52:22.641Z,28.81
2022-08-22T20:54:28.098Z,28.81
2022-08-22T20:56:38.906Z,28.81
2022-08-22T20:58:58.120Z,28.82
2022-08-22T21:01:03.161Z,28.73
2022-08-22T21:03:08.988Z,28.68
2022-08-22T21:05:21.533Z,28.69
2022-08-22T21:07:26.350Z,28.68
2022-08-22T21:09:29.312Z,28.63
2022-08-22T21:11:30.983Z,28.52
2022-08-22T21:13:34.876Z,28.54
2022-08-22T21:15:45.967Z,28.55
2022-08-22T21:17:47.616Z,28.54
2022-08-22T21:19:49.932Z,28.49
2022-08-22T21:21:53.576Z,28.44
2022-08-22T21:24:00.558Z,28.40
2022-08-22T21:26:06.592Z,28.40
2022-08-22T21:28:08.214Z,28.37
2022-08-22T21:30:19.694Z,28.35
2022-08-22T21:32:27.444Z,28.32
2022-08-22T21:34:32.309Z,28.30
2022-08-22T21:36:38.277Z,28.30
2022-08-22T21:38:47.784Z,28.24
2022-08-22T21:40:49.489Z,28.21
2022-08-22T21:43:05.121Z,28.17
2022-08-22T21:45:09.095Z,28.18
2022-08-22T21:47:19.195Z,28.21
2022-08-22T21:49:32.673Z,28.27
2022-08-22T21:51:42.508Z,28.29
2022-08-22T21:53:45.502Z,28.30
2022-08-22T21:55:47.095Z,28.29
2022-08-22T21:58:02.158Z,28.24
2022-08-22T22:00:09.057Z,28.24
2022-08-22T22:02:36.876Z,28.23
2022-08-22T22:04:38.907Z,28.21
2022-08-22T22:06:40.577Z,28.15
2022-08-22T22:08:42.342Z,28.11
2022-08-22T22:10:47.379Z,28.13
2022-08-22T22:12:50.274Z,28.14
2022-08-22T22:14:52.396Z,28.11
2022-08-22T22:16:53.984Z,28.03
2022-08-22T22:18:55.932Z,27.97
2022-08-22T22:20:58.019Z,27.96
2022-08-22T22:22:59.783Z,27.88
2022-08-22T22:25:01.402Z,27.79
2022-08-22T22:27:05.408Z,27.80
2022-08-22T22:29:07.213Z,27.81
2022-08-22T22:31:10.461Z,27.76
2022-08-22T22:33:12.117Z,27.75
2022-08-22T22:35:14.695Z,27.73
2022-08-22T22:37:16.651Z,27.74
2022-08-22T22:39:18.369Z,27.71
2022-08-22T22:41:20.794Z,27.72
2022-08-22T22:43:23.828Z,27.68
2022-08-22T22:45:28.344Z,27.73
2022-08-22T22:47:31.723Z,27.72
2022-08-22T22:49:33.435Z,27.68
2022-08-22T22:51:35.013Z,27.64
2022-08-22T22:53:40.393Z,27.60
2022-08-22T22:55:44.903Z,27.61
2022-08-22T22:57:46.562Z,27.60
2022-08-22T22:59:49.735Z,27.61
2022-08-22T23:02:03.915Z,27.62
2022-08-22T23:04:06.070Z,27.64
2022-08-22T23:06:10.945Z,27.64
2022-08-22T23:08:12.650Z,27.68
2022-08-22T23:10:16.707Z,27.68
2022-08-22T23:12:22.521Z,27.66
2022-08-22T23:14:24.339Z,27.69
2022-08-22T23:16:28.887Z,27.64
2022-08-22T23:18:32.592Z,27.62
2022-08-22T23:20:35.390Z,27.54
2022-08-22T23:22:37.038Z,27.55
2022-08-22T23:24:39.686Z,27.50
2022-08-22T23:26:41.835Z,27.43
2022-08-22T23:28:43.461Z,27.42
2022-08-22T23:30:45.009Z,27.44
2022-08-22T23:32:48.069Z,27.40
2022-08-22T23:34:49.635Z,27.37
2022-08-22T23:36:53.922Z,27.29
2022-08-22T23:38:55.965Z,27.26
2022-08-22T23:41:06.647Z,27.28
2022-08-22T23:43:11.221Z,27.28
2022-08-22T23:45:12.817Z,27.33
2022-08-22T23:47:15.657Z,27.35
2022-08-22T23:49:19.373Z,27.44
2022-08-22T23:51:23.241Z,27.49
2022-08-22T23:53:24.907Z,27.51
2022-08-22T23:55:28.866Z,27.55
2022-08-22T23:57:30.432Z,27.58
2022-08-22T23:59:34.243Z,27.53
